Time;durP1;ratioP1;P1;durP2;ratioP2;P2;SDS_P1;SDS_P2;PMS_P1;PMS_P2;Temp;Humidity;BMP_temperature;BMP_pressure;BME280_temperature;BME280_humidity;BME280_pressure;Samples;Min_cycle;Max_cycle;Signal;HPM_P1;HPM_P2
2021/05/26 00:01:50;;;;;;;0.40;0.20;;;13.80;77.00;;;;;;5015604;28;20459;-73
2021/05/26 00:04:16;;;;;;;0.40;0.20;;;13.70;77.80;;;;;;4995847;28;20941;-74
2021/05/26 00:06:42;;;;;;;0.40;0.20;;;13.70;77.80;;;;;;4994715;28;20397;-77
2021/05/26 00:09:07;;;;;;;0.40;0.20;;;13.80;78.00;;;;;;5016944;28;20413;-75
2021/05/26 00:11:34;;;;;;;0.40;0.30;;;13.70;78.60;;;;;;5015648;28;20485;-74
2021/05/26 00:13:59;;;;;;;0.40;0.20;;;13.70;78.20;;;;;;5033900;28;20383;-73
2021/05/26 00:16:26;;;;;;;0.40;0.20;;;13.60;78.60;;;;;;5034034;28;20466;-73
2021/05/26 00:18:52;;;;;;;0.40;0.30;;;13.70;79.10;;;;;;5033448;28;20391;-74
2021/05/26 00:21:19;;;;;;;0.40;0.20;;;13.70;79.00;;;;;;5034231;28;20525;-75
2021/05/26 00:23:45;;;;;;;0.40;0.20;;;13.60;79.10;;;;;;5033359;28;20402;-75
2021/05/26 00:26:11;;;;;;;0.40;0.30;;;13.70;79.30;;;;;;5016185;28;20678;-76
2021/05/26 00:28:38;;;;;;;0.40;0.20;;;13.60;79.10;;;;;;5033178;28;20382;-75
2021/05/26 00:31:06;;;;;;;0.40;0.22;;;13.60;79.40;;;;;;5033962;28;20398;-73
2021/05/26 00:33:32;;;;;;;0.40;0.20;;;13.60;79.70;;;;;;5033757;28;20559;-73
2021/05/26 00:35:57;;;;;;;0.40;0.20;;;13.60;79.80;;;;;;5033420;28;20881;-74
2021/05/26 00:38:23;;;;;;;0.40;0.20;;;13.50;79.80;;;;;;5033367;28;20466;-74
2021/05/26 00:40:49;;;;;;;0.40;0.20;;;13.50;80.20;;;;;;5033107;28;20509;-74
2021/05/26 00:43:16;;;;;;;0.40;0.30;;;13.50;80.70;;;;;;5033698;28;20442;-76
2021/05/26 00:45:42;;;;;;;0.40;0.30;;;13.50;80.10;;;;;;5033167;28;20415;-74
2021/05/26 00:48:08;;;;;;;0.40;0.20;;;13.60;80.40;;;;;;5033594;28;20425;-75
2021/05/26 00:50:35;;;;;;;0.40;0.30;;;13.50;80.30;;;;;;5033139;28;20417;-74
2021/05/26 00:53:06;;;;;;;0.40;0.20;;;13.50;80.40;;;;;;5031712;28;20877;-74
2021/05/26 00:55:33;;;;;;;0.40;0.30;;;13.80;81.10;;;;;;5033607;28;20378;-74
2021/05/26 00:58:00;;;;;;;0.40;0.20;;;13.50;80.40;;;;;;5032849;28;20735;-75
2021/05/26 01:00:28;;;;;;;0.40;0.30;;;13.40;80.60;;;;;;5031897;28;20406;-74
2021/05/26 01:02:53;;;;;;;0.40;0.20;;;13.40;81.10;;;;;;5013005;28;20393;-74
2021/05/26 01:05:21;;;;;;;0.40;0.30;;;13.50;81.40;;;;;;4995837;28;20893;-73
2021/05/26 01:07:47;;;;;;;0.40;0.28;;;13.40;81.30;;;;;;5012762;28;20407;-73
2021/05/26 01:10:15;;;;;;;0.40;0.20;;;13.40;82.00;;;;;;4995688;28;20508;-73
2021/05/26 01:12:41;;;;;;;0.40;0.20;;;13.40;82.00;;;;;;4994895;28;20397;-76
2021/05/26 01:15:09;;;;;;;0.40;0.30;;;13.40;82.10;;;;;;5013194;28;20400;-74
2021/05/26 01:17:35;;;;;;;0.40;0.30;;;13.40;82.50;;;;;;5013304;28;20732;-74
2021/05/26 01:20:03;;;;;;;0.40;0.30;;;13.40;82.80;;;;;;5012751;28;20392;-74
2021/05/26 01:22:29;;;;;;;0.40;0.20;;;13.40;83.00;;;;;;5012983;28;20747;-74
2021/05/26 01:24:54;;;;;;;0.40;0.20;;;13.50;83.50;;;;;;5012473;28;20385;-74
2021/05/26 01:27:20;;;;;;;0.40;0.20;;;13.40;84.40;;;;;;5012810;28;20759;-73
2021/05/26 01:29:46;;;;;;;0.40;0.20;;;13.30;85.20;;;;;;4994686;28;20440;-74
2021/05/26 01:32:12;;;;;;;0.40;0.30;;;13.30;85.70;;;;;;5013002;28;20401;-74
2021/05/26 01:34:37;;;;;;;0.40;0.20;;;13.10;86.60;;;;;;5013029;28;20393;-74
2021/05/26 01:37:03;;;;;;;0.40;0.20;;;13.00;87.40;;;;;;5010898;28;20811;-74
2021/05/26 01:39:28;;;;;;;0.40;0.20;;;12.80;90.40;;;;;;5012529;28;20745;-74
2021/05/26 01:41:55;;;;;;;0.40;0.20;;;12.60;92.20;;;;;;5011999;28;20855;-74
2021/05/26 01:44:24;;;;;;;0.40;0.28;;;12.40;94.00;;;;;;4995228;28;20468;-76
2021/05/26 01:46:50;;;;;;;0.40;0.30;;;12.20;99.90;;;;;;5012025;28;20384;-75
2021/05/26 01:49:15;;;;;;;0.40;0.20;;;11.60;99.90;;;;;;5011958;28;20413;-75
2021/05/26 01:51:41;;;;;;;0.40;0.20;;;12.00;99.90;;;;;;4990597;28;20415;-75
2021/05/26 01:54:07;;;;;;;0.40;0.20;;;11.00;99.90;;;;;;4992445;28;20410;-75
2021/05/26 01:56:34;;;;;;;0.40;0.20;;;11.00;99.90;;;;;;4991344;28;20450;-74
2021/05/26 01:58:59;;;;;;;0.40;0.20;;;11.20;99.90;;;;;;4991970;28;20390;-74
2021/05/26 02:01:27;;;;;;;0.40;0.20;;;11.10;99.90;;;;;;4992710;28;20947;-74
2021/05/26 02:03:53;;;;;;;0.40;0.20;;;10.50;99.90;;;;;;4991993;28;20403;-74
2021/05/26 02:06:21;;;;;;;0.40;0.20;;;10.50;99.90;;;;;;4992330;28;20805;-74
2021/05/26 02:08:49;;;;;;;0.40;0.20;;;10.60;99.90;;;;;;4991694;28;20423;-75
2021/05/26 02:14:07;;;;;;;0.40;0.30;;;10.50;99.90;;;;;;4991946;28;20394;-74
2021/05/26 02:16:37;;;;;;;0.40;0.30;;;10.40;99.90;;;;;;4990967;28;20435;-74
2021/05/26 02:19:04;;;;;;;0.40;0.20;;;10.60;99.90;;;;;;4991448;28;20883;-74
2021/05/26 02:21:30;;;;;;;0.40;0.30;;;10.50;99.90;;;;;;4991320;28;20448;-74
2021/05/26 02:23:57;;;;;;;0.40;0.20;;;10.40;99.90;;;;;;4990175;28;20485;-74
2021/05/26 02:26:23;;;;;;;0.40;0.30;;;10.50;99.90;;;;;;4992366;28;20416;-74
2021/05/26 02:28:48;;;;;;;0.40;0.20;;;10.40;99.90;;;;;;4991698;28;20418;-74
2021/05/26 02:31:14;;;;;;;0.40;0.20;;;10.50;99.90;;;;;;4991831;28;20496;-74
2021/05/26 02:33:40;;;;;;;0.40;0.20;;;10.40;99.90;;;;;;4992154;28;20378;-74
2021/05/26 02:36:06;;;;;;;0.40;0.30;;;10.40;99.90;;;;;;4991140;28;20446;-74
2021/05/26 02:38:32;;;;;;;0.40;0.30;;;10.30;99.90;;;;;;4992050;28;20386;-73
2021/05/26 02:40:58;;;;;;;0.40;0.20;;;10.20;99.90;;;;;;4991207;28;20741;-74
2021/05/26 02:43:24;;;;;;;0.40;0.20;;;10.40;99.90;;;;;;4991810;28;20912;-73
2021/05/26 02:45:50;;;;;;;0.40;0.20;;;9.90;99.90;;;;;;4990024;28;20406;-74
2021/05/26 02:48:15;;;;;;;0.40;0.30;;;10.40;99.90;;;;;;4992008;28;20383;-74
2021/05/26 02:50:41;;;;;;;0.40;0.20;;;10.70;99.90;;;;;;5000441;28;20425;-74
2021/05/26 02:53:07;;;;;;;0.40;0.20;;;10.70;99.90;;;;;;5009823;28;20439;-74
2021/05/26 02:55:33;;;;;;;0.40;0.20;;;10.50;99.90;;;;;;5009854;28;20385;-74
2021/05/26 02:57:59;;;;;;;0.40;0.30;;;11.20;99.90;;;;;;5009686;28;20421;-74
2021/05/26 03:00:25;;;;;;;0.40;0.30;;;11.00;99.90;;;;;;5011462;28;20389;-74
2021/05/26 03:02:51;;;;;;;0.40;0.20;;;10.50;99.90;;;;;;5010857;28;20401;-74
2021/05/26 03:05:18;;;;;;;0.40;0.20;;;10.80;99.90;;;;;;5011060;28;20380;-74
2021/05/26 03:07:45;;;;;;;0.40;0.30;;;10.90;99.90;;;;;;5011050;28;20397;-74
2021/05/26 03:10:13;;;;;;;0.40;0.20;;;11.00;99.90;;;;;;5011039;28;20448;-74
2021/05/26 03:12:39;;;;;;;0.40;0.30;;;11.00;99.90;;;;;;5011380;28;20471;-74
2021/05/26 03:15:09;;;;;;;0.40;0.20;;;11.00;99.90;;;;;;5010683;28;21077;-74
2021/05/26 03:17:35;;;;;;;0.40;0.20;;;10.90;99.90;;;;;;5010208;28;20392;-74
2021/05/26 03:20:02;;;;;;;0.40;0.20;;;11.00;99.90;;;;;;5009209;28;20432;-75
2021/05/26 03:22:28;;;;;;;0.40;0.20;;;11.00;99.90;;;;;;5010085;28;20408;-74
2021/05/26 03:24:53;;;;;;;0.40;0.20;;;11.10;99.90;;;;;;5010609;28;20388;-75
2021/05/26 03:27:26;;;;;;;0.40;0.20;;;11.10;99.90;;;;;;5011116;28;20459;-74
2021/05/26 03:29:52;;;;;;;0.40;0.30;;;11.10;99.90;;;;;;5010385;28;20515;-74
2021/05/26 03:32:17;;;;;;;0.40;0.30;;;10.80;99.90;;;;;;5011094;28;20395;-74
2021/05/26 03:34:44;;;;;;;0.40;0.30;;;10.90;99.90;;;;;;5010923;28;20400;-74
2021/05/26 03:37:13;;;;;;;0.40;0.20;;;10.90;99.90;;;;;;5010436;28;20377;-74
2021/05/26 03:39:39;;;;;;;0.40;0.30;;;10.80;99.90;;;;;;5011000;28;20468;-73
2021/05/26 03:42:05;;;;;;;0.40;0.28;;;10.80;99.90;;;;;;5010188;28;20475;-76
2021/05/26 03:44:31;;;;;;;0.40;0.20;;;10.80;99.90;;;;;;5009694;28;20403;-74
2021/05/26 03:46:56;;;;;;;0.40;0.20;;;10.80;99.90;;;;;;5010429;28;20878;-74
2021/05/26 03:49:22;;;;;;;0.40;0.20;;;10.80;99.90;;;;;;5011002;28;20420;-74
2021/05/26 03:51:47;;;;;;;0.40;0.30;;;10.70;99.90;;;;;;4989359;28;20497;-76
2021/05/26 03:54:13;;;;;;;0.40;0.30;;;11.50;99.90;;;;;;4991324;28;20383;-74
2021/05/26 03:56:41;;;;;;;0.40;0.20;;;11.50;99.90;;;;;;4990939;28;20398;-74
2021/05/26 03:59:08;;;;;;;0.40;0.20;;;11.00;99.90;;;;;;4990776;28;20383;-74
2021/05/26 04:01:34;;;;;;;0.40;0.30;;;10.90;99.90;;;;;;4990898;28;20401;-74
2021/05/26 04:03:59;;;;;;;0.40;0.20;;;11.00;99.90;;;;;;4990670;28;20383;-74
2021/05/26 04:06:25;;;;;;;0.40;0.30;;;10.80;99.90;;;;;;4991239;28;20396;-75
2021/05/26 04:08:51;;;;;;;0.40;0.30;;;11.30;99.90;;;;;;4989332;28;20530;-75
2021/05/26 04:11:17;;;;;;;0.40;0.30;;;11.00;99.90;;;;;;4991282;28;20390;-75
2021/05/26 04:13:43;;;;;;;0.40;0.30;;;11.10;99.90;;;;;;4991864;28;20399;-74
2021/05/26 04:16:09;;;;;;;0.40;0.20;;;11.20;99.90;;;;;;4993910;28;20848;-75
2021/05/26 04:18:35;;;;;;;0.40;0.20;;;11.30;99.90;;;;;;4994587;28;20832;-75
2021/05/26 04:21:00;;;;;;;0.40;0.20;;;11.40;99.90;;;;;;4994454;28;20378;-75
2021/05/26 04:23:26;;;;;;;0.40;0.30;;;11.50;99.90;;;;;;4994726;28;20399;-76
2021/05/26 04:25:52;;;;;;;0.40;0.30;;;11.60;99.90;;;;;;4994165;28;20414;-75
2021/05/26 04:28:19;;;;;;;0.40;0.30;;;11.60;99.90;;;;;;4993417;28;20485;-74
2021/05/26 04:30:46;;;;;;;0.40;0.20;;;11.60;99.90;;;;;;4994207;28;20445;-75
2021/05/26 04:33:12;;;;;;;0.40;0.30;;;11.70;99.90;;;;;;4992663;28;20394;-76
2021/05/26 04:35:37;;;;;;;0.40;0.30;;;11.80;99.90;;;;;;4993269;28;20390;-74
2021/05/26 04:38:03;;;;;;;0.40;0.30;;;11.90;99.90;;;;;;4992670;28;20399;-74
2021/05/26 04:40:29;;;;;;;0.40;0.30;;;12.20;99.90;;;;;;4993028;28;20433;-76
2021/05/26 04:42:55;;;;;;;0.40;0.30;;;12.20;99.90;;;;;;4992229;28;20449;-75
2021/05/26 04:45:23;;;;;;;0.40;0.20;;;12.00;99.90;;;;;;4993353;28;21612;-75
2021/05/26 04:47:48;;;;;;;0.40;0.30;;;12.10;99.90;;;;;;4993961;28;20447;-74
2021/05/26 04:50:14;;;;;;;0.40;0.30;;;11.90;99.90;;;;;;5006517;28;20427;-74
2021/05/26 04:52:40;;;;;;;0.40;0.25;;;12.10;99.90;;;;;;5015860;28;20461;-75
2021/05/26 04:55:06;;;;;;;0.40;0.30;;;12.00;99.90;;;;;;5032607;28;20415;-73
2021/05/26 04:57:32;;;;;;;0.40;0.30;;;12.10;99.90;;;;;;5033404;28;20441;-75
2021/05/26 04:59:57;;;;;;;0.40;0.30;;;12.20;99.90;;;;;;5032621;28;20383;-74
2021/05/26 05:02:23;;;;;;;0.40;0.30;;;12.30;99.90;;;;;;5032942;28;20456;-74
2021/05/26 05:04:48;;;;;;;0.40;0.20;;;12.20;99.90;;;;;;5033120;28;20382;-76
2021/05/26 05:07:14;;;;;;;0.40;0.30;;;12.20;99.90;;;;;;5032586;28;20913;-75
2021/05/26 05:09:40;;;;;;;0.40;0.30;;;12.20;99.90;;;;;;5033210;28;20415;-75
2021/05/26 05:12:06;;;;;;;0.40;0.30;;;12.20;99.90;;;;;;5032540;28;20387;-75
2021/05/26 05:14:31;;;;;;;0.40;0.20;;;12.20;99.90;;;;;;5032915;28;20458;-76
2021/05/26 05:16:57;;;;;;;0.40;0.30;;;12.20;99.90;;;;;;5014777;28;20392;-75
2021/05/26 05:19:23;;;;;;;0.40;0.20;;;12.40;99.90;;;;;;5033363;28;20414;-74
2021/05/26 05:21:48;;;;;;;0.40;0.20;;;12.30;99.90;;;;;;5032784;28;20444;-75
2021/05/26 05:24:14;;;;;;;0.40;0.30;;;12.30;99.90;;;;;;5013997;28;20417;-74
2021/05/26 05:26:40;;;;;;;0.40;0.30;;;12.30;99.90;;;;;;5032620;28;20861;-75
2021/05/26 05:29:05;;;;;;;0.40;0.30;;;12.20;99.90;;;;;;5032025;28;20457;-75
2021/05/26 05:31:31;;;;;;;0.40;0.20;;;12.20;99.90;;;;;;5014664;28;20713;-74
2021/05/26 05:33:57;;;;;;;0.40;0.30;;;12.20;99.90;;;;;;5032187;28;20395;-75
2021/05/26 05:36:23;;;;;;;0.40;0.30;;;12.30;99.90;;;;;;5014822;28;20792;-74
2021/05/26 05:38:49;;;;;;;0.40;0.20;;;12.40;99.90;;;;;;5014910;28;20429;-76
2021/05/26 05:41:15;;;;;;;0.40;0.20;;;12.20;99.90;;;;;;5031658;28;20375;-75
2021/05/26 05:43:40;;;;;;;0.40;0.30;;;12.20;99.90;;;;;;5031543;28;20414;-72
2021/05/26 05:46:06;;;;;;;0.40;0.20;;;12.20;99.90;;;;;;5031342;28;20383;-74
2021/05/26 05:48:32;;;;;;;0.40;0.20;;;12.20;99.90;;;;;;5014199;28;20402;-74
2021/05/26 05:50:57;;;;;;;0.40;0.20;;;12.70;99.90;;;;;;5030947;28;20841;-75
2021/05/26 05:53:23;;;;;;;0.40;0.20;;;12.30;99.90;;;;;;5014060;28;20383;-73
2021/05/26 05:55:49;;;;;;;0.40;0.30;;;12.20;99.90;;;;;;5032225;28;20379;-75
2021/05/26 05:58:25;;;;;;;0.40;0.30;;;12.20;99.90;;;;;;5031460;28;20883;-74
2021/05/26 06:00:51;;;;;;;0.40;0.30;;;12.20;99.90;;;;;;5031963;28;20494;-73
2021/05/26 06:03:16;;;;;;;0.40;0.20;;;12.20;99.90;;;;;;5030999;28;20506;-75
2021/05/26 06:05:42;;;;;;;0.40;0.30;;;12.20;99.90;;;;;;5031773;28;20376;-75
2021/05/26 06:08:08;;;;;;;0.40;0.30;;;12.20;99.90;;;;;;5013688;28;20397;-74
2021/05/26 06:10:33;;;;;;;0.40;0.30;;;12.20;99.90;;;;;;5031656;28;20711;-73
2021/05/26 06:13:00;;;;;;;0.40;0.30;;;12.20;99.90;;;;;;5013270;28;20505;-78
2021/05/26 06:15:26;;;;;;;0.40;0.30;;;12.20;99.90;;;;;;5013818;28;20720;-74
2021/05/26 06:17:51;;;;;;;0.40;0.30;;;12.40;99.90;;;;;;5031331;28;20456;-74
2021/05/26 06:20:17;;;;;;;0.40;0.30;;;12.10;99.90;;;;;;5030278;28;20391;-75
2021/05/26 06:22:45;;;;;;;0.40;0.30;;;12.10;99.90;;;;;;5013648;28;20407;-75
2021/05/26 06:25:11;;;;;;;0.40;0.30;;;12.10;99.90;;;;;;5012783;28;20422;-76
2021/05/26 06:27:38;;;;;;;0.40;0.20;;;12.10;99.90;;;;;;5030562;28;20811;-75
2021/05/26 06:30:04;;;;;;;0.40;0.20;;;12.10;99.90;;;;;;5012020;28;20434;-74
2021/05/26 06:32:30;;;;;;;0.40;0.30;;;12.20;99.90;;;;;;5031012;28;20391;-74
2021/05/26 06:34:55;;;;;;;0.40;0.20;;;12.20;99.90;;;;;;5030686;28;20395;-74
2021/05/26 06:37:21;;;;;;;0.40;0.20;;;12.10;99.90;;;;;;5029775;28;20383;-74
2021/05/26 06:39:47;;;;;;;0.40;0.30;;;12.10;99.90;;;;;;5030929;28;20854;-77
2021/05/26 06:42:13;;;;;;;0.40;0.22;;;12.20;99.90;;;;;;5030077;28;20382;-76
2021/05/26 06:44:39;;;;;;;0.40;0.20;;;12.20;99.90;;;;;;5012909;28;20885;-78
2021/05/26 06:47:04;;;;;;;0.40;0.20;;;12.20;99.90;;;;;;5028741;28;20818;-77
2021/05/26 06:49:31;;;;;;;0.40;0.30;;;12.20;99.90;;;;;;5011869;28;20994;-76
2021/05/26 06:51:57;;;;;;;0.40;0.30;;;12.10;99.90;;;;;;4991192;28;20769;-76
2021/05/26 06:54:22;;;;;;;0.40;0.20;;;12.20;99.90;;;;;;4991308;28;20726;-76
2021/05/26 06:56:48;;;;;;;0.40;0.30;;;12.20;99.90;;;;;;4991765;28;20426;-75
2021/05/26 06:59:14;;;;;;;0.40;0.20;;;12.40;99.90;;;;;;4991047;28;20413;-74
2021/05/26 07:01:40;;;;;;;0.40;0.30;;;12.50;99.90;;;;;;4991272;28;20722;-75
2021/05/26 07:04:06;;;;;;;0.40;0.30;;;12.10;99.90;;;;;;4991167;28;20405;-74
2021/05/26 07:06:32;;;;;;;0.40;0.30;;;12.10;99.90;;;;;;4991665;28;20429;-75
2021/05/26 07:08:57;;;;;;;0.40;0.20;;;12.20;99.90;;;;;;4991624;28;20900;-76
2021/05/26 07:11:23;;;;;;;0.40;0.20;;;12.10;99.90;;;;;;4991447;28;20386;-75
2021/05/26 07:13:48;;;;;;;0.40;0.30;;;12.10;99.90;;;;;;4991819;28;20391;-75
2021/05/26 07:16:14;;;;;;;0.40;0.30;;;12.10;99.90;;;;;;4991467;28;20382;-75
2021/05/26 07:18:45;;;;;;;0.40;0.30;;;12.10;99.90;;;;;;4991496;28;20382;-77
2021/05/26 07:21:11;;;;;;;0.40;0.25;;;12.10;99.90;;;;;;4991244;28;20741;-74
2021/05/26 07:23:37;;;;;;;0.40;0.20;;;12.20;99.90;;;;;;4991648;28;20483;-74
2021/05/26 07:26:02;;;;;;;0.40;0.20;;;12.20;99.90;;;;;;4989884;28;20808;-75
2021/05/26 07:28:28;;;;;;;0.40;0.30;;;12.40;99.90;;;;;;4991649;28;20394;-75
2021/05/26 07:30:54;;;;;;;0.40;0.30;;;12.20;99.90;;;;;;4991289;28;20434;-75
2021/05/26 07:33:19;;;;;;;0.40;0.20;;;12.10;99.90;;;;;;4990699;28;20429;-73
2021/05/26 07:35:45;;;;;;;0.40;0.30;;;12.10;99.90;;;;;;4990451;28;20497;-74
2021/05/26 07:38:12;;;;;;;0.40;0.30;;;12.10;99.80;;;;;;4990978;28;20393;-75
2021/05/26 07:40:38;;;;;;;0.40;0.30;;;12.10;99.90;;;;;;4990187;28;20398;-77
2021/05/26 07:43:03;;;;;;;0.40;0.20;;;12.10;99.90;;;;;;4990645;28;20409;-74
2021/05/26 07:45:29;;;;;;;0.40;0.30;;;12.10;99.90;;;;;;4991394;28;20805;-74
2021/05/26 07:47:55;;;;;;;0.40;0.20;;;12.10;99.90;;;;;;4992221;28;20397;-74
2021/05/26 07:50:21;;;;;;;0.40;0.30;;;12.00;99.90;;;;;;4998596;28;20425;-77
2021/05/26 07:52:46;;;;;;;0.40;0.20;;;12.00;99.90;;;;;;5013684;28;20741;-75
2021/05/26 07:55:13;;;;;;;0.40;0.30;;;12.00;99.90;;;;;;5014024;28;20380;-74
2021/05/26 07:57:39;;;;;;;0.40;0.30;;;11.90;99.90;;;;;;5013729;28;20492;-75
2021/05/26 08:00:07;;;;;;;0.40;0.20;;;11.90;99.90;;;;;;5012977;28;20491;-74
2021/05/26 08:02:32;;;;;;;0.40;0.20;;;11.90;99.90;;;;;;5014656;28;20921;-75
2021/05/26 08:04:58;;;;;;;0.40;0.30;;;11.90;99.90;;;;;;5014213;28;20441;-76
2021/05/26 08:07:24;;;;;;;0.40;0.30;;;12.00;99.90;;;;;;5013735;28;20491;-77
2021/05/26 08:09:49;;;;;;;0.40;0.30;;;11.90;99.90;;;;;;5013054;28;20522;-79
2021/05/26 08:12:15;;;;;;;0.40;0.20;;;11.90;99.90;;;;;;5013918;28;20511;-77
2021/05/26 08:14:41;;;;;;;0.40;0.30;;;11.80;99.90;;;;;;5014372;28;20373;-76
2021/05/26 08:17:07;;;;;;;0.40;0.20;;;11.90;99.90;;;;;;5012378;28;20399;-77
2021/05/26 08:19:33;;;;;;;0.40;0.20;;;12.00;99.90;;;;;;5014494;28;20847;-76
2021/05/26 08:21:59;;;;;;;0.40;0.30;;;12.00;99.90;;;;;;5014092;28;20385;-76
2021/05/26 08:24:24;;;;;;;0.40;0.30;;;12.00;98.40;;;;;;5012256;28;20495;-75
2021/05/26 08:26:51;;;;;;;0.40;0.30;;;12.10;97.80;;;;;;5014184;28;20471;-75
2021/05/26 08:29:18;;;;;;;0.40;0.30;;;12.10;97.40;;;;;;5013430;28;20404;-76
2021/05/26 08:31:44;;;;;;;0.40;0.20;;;12.20;96.50;;;;;;5014369;28;20477;-79
2021/05/26 08:34:10;;;;;;;0.40;0.30;;;12.20;96.40;;;;;;5013434;28;20397;-75
2021/05/26 08:36:36;;;;;;;0.40;0.30;;;12.40;96.40;;;;;;5013464;28;20389;-75
2021/05/26 08:39:03;;;;;;;0.40;0.30;;;12.30;95.90;;;;;;5014235;28;20403;-76
2021/05/26 08:41:28;;;;;;;0.40;0.30;;;12.20;95.50;;;;;;5013507;28;20385;-75
2021/05/26 08:43:55;;;;;;;0.40;0.30;;;12.20;95.70;;;;;;5013950;28;20716;-74
2021/05/26 08:46:22;;;;;;;0.40;0.30;;;12.20;95.70;;;;;;5013471;28;20385;-75
2021/05/26 08:48:48;;;;;;;0.40;0.30;;;12.20;95.50;;;;;;5013596;28;20743;-76
2021/05/26 08:51:16;;;;;;;0.40;0.30;;;12.40;94.80;;;;;;4999247;28;20410;-75
2021/05/26 08:53:41;;;;;;;0.40;0.30;;;12.30;95.20;;;;;;4994346;28;20394;-75
2021/05/26 08:56:07;;;;;;;0.40;0.20;;;12.30;95.00;;;;;;4993635;28;20378;-74
2021/05/26 08:58:38;;;;;;;0.40;0.20;;;12.20;95.60;;;;;;4992604;28;20395;-79
2021/05/26 09:01:04;;;;;;;0.40;0.20;;;12.30;94.90;;;;;;4989496;28;20439;-74
2021/05/26 09:03:30;;;;;;;0.40;0.30;;;12.40;95.40;;;;;;4974204;28;20424;-75
2021/05/26 09:05:56;;;;;;;0.40;0.20;;;12.40;94.90;;;;;;4974530;28;20386;-74
2021/05/26 09:08:23;;;;;;;0.40;0.30;;;12.40;94.70;;;;;;4973729;28;20476;-74
2021/05/26 09:10:51;;;;;;;0.40;0.25;;;12.40;94.30;;;;;;4974357;28;20459;-74
2021/05/26 09:13:28;;;;;;;0.40;0.20;;;12.40;94.80;;;;;;4972675;28;20396;-76
2021/05/26 09:15:53;;;;;;;0.40;0.30;;;12.50;94.50;;;;;;4974957;28;20408;-75
2021/05/26 09:18:19;;;;;;;0.40;0.30;;;12.50;95.40;;;;;;4974176;28;20384;-73
2021/05/26 09:20:47;;;;;;;0.40;0.28;;;12.60;94.00;;;;;;4974054;28;20475;-74
2021/05/26 09:23:20;;;;;;;0.40;0.20;;;12.60;94.60;;;;;;4977825;28;20390;-78
2021/05/26 09:25:46;;;;;;;0.40;0.20;;;12.60;94.80;;;;;;4993650;28;20449;-79
2021/05/26 09:28:32;;;;;;;0.40;0.20;;;12.50;96.70;;;;;;4991740;28;20399;-77
2021/05/26 09:31:09;;;;;;;0.40;0.20;;;12.30;99.20;;;;;;4993207;28;20442;-77
2021/05/26 09:33:36;;;;;;;0.40;0.20;;;12.10;99.90;;;;;;4991792;28;20814;-78
2021/05/26 09:36:23;;;;;;;0.40;0.30;;;12.00;99.90;;;;;;4992071;28;20394;-77
2021/05/26 09:39:01;;;;;;;0.40;0.20;;;11.80;99.90;;;;;;4993424;28;20394;-80
2021/05/26 09:41:32;;;;;;;0.40;0.30;;;11.80;99.90;;;;;;4992497;28;20888;-79
2021/05/26 09:44:00;;;;;;;0.40;0.30;;;11.80;99.90;;;;;;4993558;28;20399;-77
2021/05/26 09:46:37;;;;;;;0.40;0.30;;;12.00;99.90;;;;;;4992559;28;20387;-77
2021/05/26 09:49:17;;;;;;;0.40;0.20;;;11.10;99.90;;;;;;4993010;28;20402;-81
2021/05/26 09:51:56;;;;;;;0.40;0.30;;;11.50;99.90;;;;;;5007962;28;20451;-78
2021/05/26 09:54:26;;;;;;;0.40;0.30;;;11.50;99.90;;;;;;5012012;28;20389;-78
2021/05/26 09:56:53;;;;;;;0.40;0.30;;;11.40;99.90;;;;;;5012618;28;20400;-79
2021/05/26 09:59:20;;;;;;;0.40;0.25;;;11.40;99.90;;;;;;5012143;28;20431;-77
2021/05/26 10:01:47;;;;;;;0.40;0.20;;;12.10;99.90;;;;;;5000548;28;20454;-79
2021/05/26 10:04:13;;;;;;;0.40;0.30;;;11.40;99.90;;;;;;4991120;28;20409;-79
2021/05/26 10:06:40;;;;;;;0.40;0.20;;;11.50;99.90;;;;;;4992938;28;20770;-78
2021/05/26 10:09:10;;;;;;;0.40;0.28;;;11.50;99.90;;;;;;4992775;28;20589;-79
2021/05/26 10:11:36;;;;;;;0.40;0.30;;;11.50;99.90;;;;;;4992239;28;20656;-78
2021/05/26 10:14:12;;;;;;;0.40;0.30;;;11.60;99.90;;;;;;4992847;28;20385;-78
2021/05/26 10:16:42;;;;;;;0.40;0.30;;;11.60;99.90;;;;;;4992616;28;20386;-78
2021/05/26 10:19:13;;;;;;;0.40;0.30;;;11.40;99.90;;;;;;4991306;28;20438;-79
2021/05/26 10:21:40;;;;;;;0.40;0.30;;;11.40;99.90;;;;;;4991252;28;20889;-79
2021/05/26 10:24:07;;;;;;;0.40;0.22;;;11.50;99.90;;;;;;4991318;28;20900;-78
2021/05/26 10:26:55;;;;;;;0.40;0.30;;;11.40;99.90;;;;;;4990536;28;20387;-79
2021/05/26 10:29:30;;;;;;;0.40;0.30;;;11.40;99.90;;;;;;4990676;28;20426;-77
2021/05/26 10:32:01;;;;;;;0.40;0.30;;;11.40;99.90;;;;;;4994226;28;20489;-77
2021/05/26 10:34:52;;;;;;;0.40;0.22;;;11.40;99.90;;;;;;4999522;28;20381;-76
2021/05/26 10:37:32;;;;;;;0.40;0.20;;;11.50;99.90;;;;;;4999042;28;20398;-77
2021/05/26 10:39:58;;;;;;;0.40;0.30;;;11.50;99.90;;;;;;4997749;28;20435;-79
2021/05/26 10:42:31;;;;;;;0.40;0.30;;;11.60;99.90;;;;;;5002035;28;20388;-75
2021/05/26 10:45:05;;;;;;;0.40;0.30;;;11.60;99.90;;;;;;5002646;28;20396;-78
2021/05/26 10:47:39;;;;;;;0.40;0.20;;;11.70;99.90;;;;;;5015181;28;20400;-77
2021/05/26 10:50:16;;;;;;;0.40;0.30;;;11.90;99.90;;;;;;5002940;28;20992;-77
2021/05/26 10:52:57;;;;;;;0.40;0.30;;;12.10;99.90;;;;;;4994270;28;21119;-74
2021/05/26 10:55:51;;;;;;;0.40;0.30;;;12.10;99.90;;;;;;5013674;28;20455;-75
2021/05/26 10:58:34;;;;;;;0.40;0.20;;;12.30;99.90;;;;;;5013309;28;20384;-78
2021/05/26 11:01:03;;;;;;;0.40;0.20;;;12.20;99.90;;;;;;5019225;28;20552;-74
2021/05/26 11:03:42;;;;;;;0.40;0.22;;;12.10;99.90;;;;;;4998374;28;20404;-77
2021/05/26 11:06:14;;;;;;;0.40;0.30;;;12.10;99.90;;;;;;4998394;28;20479;-76
2021/05/26 11:08:47;;;;;;;0.40;0.20;;;12.40;99.90;;;;;;4997671;28;20443;-78
2021/05/26 11:11:21;;;;;;;0.40;0.30;;;12.20;99.90;;;;;;5003293;28;20494;-77
2021/05/26 11:14:06;;;;;;;0.40;0.20;;;12.20;99.90;;;;;;5020556;28;20393;-77
2021/05/26 11:16:41;;;;;;;0.40;0.30;;;12.30;99.90;;;;;;5019471;28;20392;-76
2021/05/26 11:19:12;;;;;;;0.40;0.20;;;12.10;99.90;;;;;;5019429;28;20455;-78
2021/05/26 11:21:52;;;;;;;0.40;0.20;;;12.10;99.90;;;;;;5002206;28;20402;-79
2021/05/26 11:24:18;;;;;;;0.40;0.20;;;12.20;99.90;;;;;;5023739;28;20379;-83
2021/05/26 11:26:44;;;;;;;0.40;0.30;;;12.10;99.90;;;;;;5023251;28;20407;-81
2021/05/26 11:29:10;;;;;;;0.40;0.20;;;12.10;99.90;;;;;;5003065;28;20894;-80
2021/05/26 11:31:36;;;;;;;0.40;0.30;;;12.20;99.90;;;;;;4996385;28;20418;-78
2021/05/26 11:34:07;;;;;;;0.40;0.30;;;12.30;99.90;;;;;;5015044;28;20455;-75
2021/05/26 11:36:46;;;;;;;0.40;0.30;;;12.30;99.90;;;;;;5013874;28;20388;-76
2021/05/26 11:39:26;;;;;;;0.40;0.20;;;12.20;99.90;;;;;;5014870;28;20466;-75
2021/05/26 11:41:52;;;;;;;0.40;0.30;;;12.20;99.90;;;;;;5014336;28;20918;-75
2021/05/26 11:44:19;;;;;;;0.40;0.20;;;12.30;99.90;;;;;;4997018;28;20396;-78
2021/05/26 11:46:45;;;;;;;0.40;0.20;;;12.50;99.90;;;;;;5014057;28;20472;-75
2021/05/26 11:49:14;;;;;;;0.40;0.30;;;12.50;99.90;;;;;;5014356;28;20416;-80
2021/05/26 11:51:40;;;;;;;0.40;0.20;;;12.40;99.90;;;;;;5014072;28;20407;-77
2021/05/26 11:56:57;;;;;;;0.40;0.30;;;13.20;99.90;;;;;;5011131;28;20411;-79
2021/05/26 11:59:27;;;;;;;0.40;0.20;;;12.40;99.90;;;;;;5011453;28;20424;-79
2021/05/26 12:01:53;;;;;;;0.40;0.30;;;12.30;99.90;;;;;;5019355;28;20430;-80
2021/05/26 12:04:21;;;;;;;0.40;0.30;;;12.50;99.90;;;;;;5021584;28;20854;-84
2021/05/26 12:06:47;;;;;;;0.40;0.20;;;12.40;99.90;;;;;;5003584;28;20391;-80
2021/05/26 12:09:29;;;;;;;0.40;0.20;;;12.40;99.90;;;;;;5024307;28;20423;-82
2021/05/26 12:11:56;;;;;;;0.40;0.20;;;12.30;99.90;;;;;;5005524;28;20395;-78
2021/05/26 12:14:30;;;;;;;0.40;0.30;;;12.20;99.90;;;;;;5005494;28;20690;-77
2021/05/26 12:16:58;;;;;;;0.40;0.30;;;12.20;99.90;;;;;;5017536;28;20421;-76
2021/05/26 12:19:28;;;;;;;0.40;0.20;;;12.30;99.90;;;;;;4998197;28;20396;-76
2021/05/26 12:22:18;;;;;;;0.40;0.20;;;12.30;99.90;;;;;;5005293;28;20730;-78
2021/05/26 12:24:54;;;;;;;0.40;0.30;;;12.40;99.90;;;;;;5004848;28;20400;-80
2021/05/26 12:27:52;;;;;;;0.40;0.30;;;12.30;99.90;;;;;;5028590;28;20471;-85
2021/05/26 12:30:28;;;;;;;0.40;0.20;;;12.40;99.90;;;;;;5027106;28;20524;-77
2021/05/26 12:32:56;;;;;;;0.40;0.30;;;12.40;99.90;;;;;;5024144;28;20395;-77
2021/05/26 12:35:26;;;;;;;0.40;0.20;;;12.40;99.90;;;;;;5011197;28;20373;-80
2021/05/26 12:37:55;;;;;;;0.40;0.20;;;12.40;99.90;;;;;;5013684;28;20392;-76
2021/05/26 12:40:32;;;;;;;0.40;0.20;;;12.50;99.90;;;;;;5018470;28;20734;-77
2021/05/26 12:42:58;;;;;;;0.40;0.20;;;12.50;99.90;;;;;;5023632;28;20462;-80
2021/05/26 12:45:29;;;;;;;0.40;0.20;;;12.50;99.90;;;;;;5020686;28;20861;-78
2021/05/26 12:48:10;;;;;;;0.40;0.20;;;12.40;99.90;;;;;;4999076;28;20389;-77
2021/05/26 12:50:40;;;;;;;0.40;0.20;;;12.60;99.90;;;;;;5013757;28;20576;-78
2021/05/26 12:53:11;;;;;;;0.40;0.20;;;12.60;99.90;;;;;;4997880;28;20391;-77
2021/05/26 12:55:37;;;;;;;0.40;0.20;;;12.60;99.90;;;;;;5020896;28;20451;-78
2021/05/26 12:58:05;;;;;;;0.40;0.20;;;12.70;99.90;;;;;;5022518;28;20492;-78